createdAt,value
2022-10-09T00:01:33.658Z,101220.22
2022-10-09T00:03:38.805Z,101211.22
2022-10-09T00:05:42.937Z,101219.91
2022-10-09T00:07:46.743Z,101211.03
2022-10-09T00:09:51.770Z,101214.53
2022-10-09T00:11:55.442Z,101211.78
2022-10-09T00:14:00.770Z,101213.28
2022-10-09T00:16:06.121Z,101208.66
2022-10-09T00:18:10.787Z,101203.94
2022-10-09T00:20:14.403Z,101197.03
2022-10-09T00:22:17.896Z,101193.44
2022-10-09T00:24:21.452Z,101188.31
2022-10-09T00:26:26.580Z,101183.00
2022-10-09T00:28:37.730Z,101175.31
2022-10-09T00:30:42.153Z,101175.59
2022-10-09T00:32:46.061Z,101171.25
2022-10-09T00:34:50.030Z,101168.69
2022-10-09T00:36:53.521Z,101157.41
2022-10-09T00:38:57.497Z,101161.00
2022-10-09T00:41:01.345Z,101152.09
2022-10-09T00:43:08.879Z,101151.16
2022-10-09T00:45:21.114Z,101150.13
2022-10-09T00:47:29.706Z,101153.34
2022-10-09T00:49:35.934Z,101152.22
2022-10-09T00:51:40.151Z,101156.38
2022-10-09T00:53:43.849Z,101158.75
2022-10-09T00:55:47.745Z,101156.75
2022-10-09T00:57:52.572Z,101152.97
2022-10-09T00:59:57.545Z,101153.63
2022-10-09T01:02:01.135Z,101144.50
2022-10-09T01:04:04.798Z,101157.63
2022-10-09T01:06:16.985Z,101143.38
2022-10-09T01:08:26.933Z,101137.97
2022-10-09T01:10:38.079Z,101132.59
2022-10-09T01:12:51.414Z,101135.25
2022-10-09T01:15:04.922Z,101131.81
2022-10-09T01:17:16.689Z,101125.00
2022-10-09T01:19:37.075Z,101117.44
2022-10-09T01:21:44.716Z,101115.16
2022-10-09T01:24:14.685Z,101105.78
2022-10-09T01:26:36.392Z,101102.38
2022-10-09T01:28:45.164Z,101096.41
2022-10-09T01:30:50.070Z,101099.06
2022-10-09T01:32:56.214Z,101091.13
2022-10-09T01:35:01.724Z,101094.59
2022-10-09T01:37:06.333Z,101089.19
2022-10-09T01:39:13.080Z,101076.72
2022-10-09T01:41:17.108Z,101073.28
2022-10-09T01:43:21.013Z,101074.25
2022-10-09T01:45:26.311Z,101073.28
2022-10-09T01:47:29.882Z,101067.97
2022-10-09T01:49:43.446Z,101057.19
2022-10-09T01:51:54.969Z,101056.13
2022-10-09T01:54:06.270Z,101048.09
2022-10-09T01:56:16.325Z,101036.50
2022-10-09T01:58:25.550Z,101031.22
2022-10-09T02:00:37.854Z,101023.25
2022-10-09T02:02:43.433Z,101019.66
2022-10-09T02:04:49.061Z,101019.66
2022-10-09T02:06:53.436Z,101025.06
2022-10-09T02:08:58.018Z,101013.78
2022-10-09T02:11:04.251Z,101002.44
2022-10-09T02:13:08.963Z,101006.03
2022-10-09T02:15:13.781Z,101000.72
2022-10-09T02:17:21.813Z,100992.03
2022-10-09T02:19:29.218Z,100991.16
2022-10-09T02:21:39.672Z,100980.56
2022-10-09T02:23:46.349Z,100976.84
2022-10-09T02:25:50.547Z,100968.69
2022-10-09T02:27:54.525Z,100971.25
2022-10-09T02:30:01.866Z,100970.28
2022-10-09T02:32:05.544Z,100962.34
2022-10-09T02:34:12.201Z,100973.81
2022-10-09T02:36:15.857Z,100974.75
2022-10-09T02:38:19.684Z,100972.13
2022-10-09T02:40:23.267Z,100960.63
2022-10-09T02:42:27.192Z,100947.28
2022-10-09T02:44:30.895Z,100951.53
2022-10-09T02:46:35.237Z,100942.72
2022-10-09T02:48:38.891Z,100940.84
2022-10-09T02:50:43.577Z,100937.09
2022-10-09T02:52:47.063Z,100942.34
2022-10-09T02:54:50.624Z,100943.91
2022-10-09T02:56:54.128Z,100936.81
2022-10-09T02:58:57.588Z,100941.06
2022-10-09T03:01:01.590Z,100935.66
2022-10-09T03:03:05.510Z,100932.06
2022-10-09T03:05:09.594Z,100923.25
2022-10-09T03:07:14.373Z,100926.00
2022-10-09T03:09:17.622Z,100915.28
2022-10-09T03:11:22.180Z,100905.72
2022-10-09T03:13:25.946Z,100905.72
2022-10-09T03:15:29.608Z,100892.44
2022-10-09T03:17:33.018Z,100904.03
2022-10-09T03:19:36.545Z,100902.34
2022-10-09T03:21:39.952Z,100893.59
2022-10-09T03:23:45.047Z,100884.69
2022-10-09T03:25:57.172Z,100883.00
2022-10-09T03:28:00.770Z,100877.69
2022-10-09T03:30:04.733Z,100871.66
2022-10-09T03:32:08.287Z,100872.59
2022-10-09T03:34:12.233Z,100873.44
2022-10-09T03:36:15.910Z,100868.78
2022-10-09T03:38:19.422Z,100866.03
2022-10-09T03:40:24.643Z,100855.31
2022-10-09T03:42:28.270Z,100859.66
2022-10-09T03:44:31.965Z,100856.06
2022-10-09T03:46:35.649Z,100849.81
2022-10-09T03:48:39.581Z,100849.59
2022-10-09T03:50:43.337Z,100849.50
2022-10-09T03:52:47.152Z,100851.09
2022-10-09T03:54:50.971Z,100857.06
2022-10-09T03:56:56.055Z,100855.03
2022-10-09T03:58:59.697Z,100851.41
2022-10-09T04:01:03.348Z,100863.63
2022-10-09T04:03:06.971Z,100858.94
2022-10-09T04:05:11.036Z,100850.91
2022-10-09T04:07:14.695Z,100836.66
2022-10-09T04:09:18.203Z,100827.84
2022-10-09T04:11:21.747Z,100834.09
2022-10-09T04:13:26.856Z,100826.16
2022-10-09T04:15:30.519Z,100812.16
2022-10-09T04:17:34.018Z,100816.59
2022-10-09T04:19:37.515Z,100806.19
2022-10-09T04:21:41.333Z,100795.69
2022-10-09T04:23:44.831Z,100793.25
2022-10-09T04:25:48.546Z,100786.47
2022-10-09T04:27:52.022Z,100779.66
2022-10-09T04:29:57.012Z,100779.84
2022-10-09T04:32:00.762Z,100769.56
2022-10-09T04:34:04.902Z,100772.44
2022-10-09T04:36:08.917Z,100769.91
2022-10-09T04:38:13.040Z,100757.78
2022-10-09T04:40:16.581Z,100756.09
2022-10-09T04:42:20.337Z,100760.53
2022-10-09T04:44:23.797Z,100751.63
2022-10-09T04:46:29.038Z,100762.13
2022-10-09T04:48:32.923Z,100769.03
2022-10-09T04:50:39.570Z,100762.66
2022-10-09T04:52:43.097Z,100757.13
2022-10-09T04:54:46.614Z,100765.84
2022-10-09T04:56:50.168Z,100766.59
2022-10-09T04:58:53.633Z,100755.78
2022-10-09T05:00:57.324Z,100764.34
2022-10-09T05:03:02.453Z,100758.00
2022-10-09T05:05:06.836Z,100741.84
2022-10-09T05:07:10.348Z,100752.38
2022-10-09T05:09:13.915Z,100747.91
2022-10-09T05:11:19.405Z,100746.84
2022-10-09T05:13:22.819Z,100744.31
2022-10-09T05:15:26.559Z,100730.94
2022-10-09T05:17:30.346Z,100728.28
2022-10-09T05:19:35.792Z,100741.44
2022-10-09T05:21:39.206Z,100729.88
2022-10-09T05:23:42.901Z,100727.22
2022-10-09T05:25:55.006Z,100734.19
2022-10-09T05:28:00.433Z,100725.28
2022-10-09T05:30:04.113Z,100727.00
2022-10-09T05:32:08.128Z,100723.38
2022-10-09T05:34:11.887Z,100716.38
2022-10-09T05:36:17.651Z,100714.44
2022-10-09T05:38:21.966Z,100707.34
2022-10-09T05:40:29.220Z,100697.47
2022-10-09T05:42:33.084Z,100693.72
2022-10-09T05:44:36.576Z,100699.81
2022-10-09T05:46:40.479Z,100692.69
2022-10-09T05:48:45.316Z,100694.25
2022-10-09T05:50:49.221Z,100679.16
2022-10-09T05:52:54.293Z,100679.06
2022-10-09T05:54:58.199Z,100667.47
2022-10-09T05:57:01.686Z,100665.78
2022-10-09T05:59:07.226Z,100656.16
2022-10-09T06:01:11.473Z,100659.75
2022-10-09T06:03:15.180Z,100655.41
2022-10-09T06:05:18.839Z,100653.69
2022-10-09T06:07:22.398Z,100652.00
2022-10-09T06:09:27.587Z,100652.13
2022-10-09T06:11:32.660Z,100650.31
2022-10-09T06:13:36.121Z,100648.59
2022-10-09T06:15:39.746Z,100648.00
2022-10-09T06:17:43.398Z,100644.59
2022-10-09T06:19:47.019Z,100650.97
2022-10-09T06:21:50.803Z,100645.78
2022-10-09T06:23:55.967Z,100638.03
2022-10-09T06:26:03.410Z,100638.16
2022-10-09T06:28:07.139Z,100625.72
2022-10-09T06:30:11.959Z,100628.25
2022-10-09T06:32:15.482Z,100635.03
2022-10-09T06:34:19.205Z,100638.22
2022-10-09T06:36:24.003Z,100636.28
2022-10-09T06:38:27.474Z,100640.34
2022-10-09T06:40:31.112Z,100613.56
2022-10-09T06:42:36.183Z,100625.75
2022-10-09T06:44:49.931Z,100632.78
2022-10-09T06:46:53.603Z,100638.81
2022-10-09T06:48:57.867Z,100620.09
2022-10-09T06:51:02.963Z,100639.56
2022-10-09T06:53:07.003Z,100619.16
2022-10-09T06:55:10.889Z,100627.00
2022-10-09T06:57:14.695Z,100617.97
2022-10-09T06:59:19.720Z,100608.69
2022-10-09T07:01:26.955Z,100593.50
2022-10-09T07:03:31.318Z,100589.16
2022-10-09T07:05:34.904Z,100577.78
2022-10-09T07:07:42.062Z,100576.94
2022-10-09T07:09:45.591Z,100576.09
2022-10-09T07:11:50.460Z,100572.72
2022-10-09T07:13:57.106Z,100571.00
2022-10-09T07:16:04.829Z,100564.84
2022-10-09T07:18:08.690Z,100545.44
2022-10-09T07:20:12.240Z,100548.81
2022-10-09T07:22:15.783Z,100549.66
2022-10-09T07:24:20.866Z,100551.22
2022-10-09T07:26:26.751Z,100537.00
2022-10-09T07:28:32.147Z,100543.13
2022-10-09T07:30:39.760Z,100536.03
2022-10-09T07:32:44.872Z,100541.22
2022-10-09T07:34:48.368Z,100533.38
2022-10-09T07:36:52.035Z,100539.41
2022-10-09T07:38:57.302Z,100525.19
2022-10-09T07:41:05.752Z,100523.34
2022-10-09T07:43:09.298Z,100515.19
2022-10-09T07:45:13.111Z,100499.38
2022-10-09T07:47:16.601Z,100510.72
2022-10-09T07:49:21.821Z,100515.91
2022-10-09T07:51:27.205Z,100503.38
2022-10-09T07:53:35.691Z,100504.94
2022-10-09T07:55:46.443Z,100517.88
2022-10-09T07:57:49.974Z,100514.88
2022-10-09T07:59:53.508Z,100516.34
2022-10-09T08:01:57.313Z,100518.53
2022-10-09T08:04:01.627Z,100508.28
2022-10-09T08:06:07.108Z,100498.03
2022-10-09T08:08:10.679Z,100490.56
2022-10-09T08:10:14.288Z,100490.06
2022-10-09T08:12:17.841Z,100489.69
2022-10-09T08:14:21.604Z,100484.03
2022-10-09T08:16:26.204Z,100493.56
2022-10-09T08:18:29.684Z,100497.56
2022-10-09T08:20:33.286Z,100484.75
2022-10-09T08:22:38.235Z,100505.78
2022-10-09T08:24:41.787Z,100486.06
2022-10-09T08:26:45.643Z,100483.28
2022-10-09T08:28:52.379Z,100474.47
2022-10-09T08:30:56.388Z,100468.28
2022-10-09T08:33:00.040Z,100479.78
2022-10-09T08:35:03.575Z,100449.69
2022-10-09T08:37:07.510Z,100449.69
2022-10-09T08:39:12.908Z,100456.09
2022-10-09T08:41:24.837Z,100441.84
2022-10-09T08:43:35.449Z,100446.31
2022-10-09T08:45:42.106Z,100446.44
2022-10-09T08:47:49.743Z,100455.25
2022-10-09T08:49:58.026Z,100458.88
2022-10-09T08:52:21.400Z,100443.88
2022-10-09T08:54:35.892Z,100437.72
2022-10-09T08:56:40.416Z,100436.91
2022-10-09T08:58:45.721Z,100429.75
2022-10-09T09:00:53.775Z,100422.59
2022-10-09T09:03:21.391Z,100427.09
2022-10-09T09:05:37.775Z,100414.53
2022-10-09T09:07:50.849Z,100415.38
2022-10-09T09:10:01.583Z,100411.75
2022-10-09T09:12:12.542Z,100397.47
2022-10-09T09:14:28.493Z,100400.13
2022-10-09T09:16:40.284Z,100394.69
2022-10-09T09:18:53.402Z,100386.59
2022-10-09T09:20:59.806Z,100379.31
2022-10-09T09:23:04.056Z,100371.22
2022-10-09T09:25:20.254Z,100370.38
2022-10-09T09:27:30.265Z,100368.44
2022-10-09T09:29:41.388Z,100381.63
2022-10-09T09:31:46.810Z,100373.53
2022-10-09T09:33:57.577Z,100367.94
2022-10-09T09:36:09.750Z,100376.75
2022-10-09T09:38:13.375Z,100392.59
2022-10-09T09:40:37.975Z,100387.25
2022-10-09T09:42:42.263Z,100399.59
2022-10-09T09:44:52.631Z,100403.00
2022-10-09T09:46:56.598Z,100389.69
2022-10-09T09:49:00.149Z,100388.59
2022-10-09T09:51:26.932Z,100397.41
2022-10-09T09:53:33.812Z,100390.03
2022-10-09T09:55:39.190Z,100392.56
2022-10-09T09:57:46.863Z,100390.47
2022-10-09T09:59:50.877Z,100391.09
2022-10-09T10:02:02.097Z,100391.81
2022-10-09T10:04:06.306Z,100386.25
2022-10-09T10:06:23.296Z,100370.84
2022-10-09T10:08:29.334Z,100380.25
2022-10-09T10:10:33.350Z,100361.41
2022-10-09T10:12:43.941Z,100366.31
2022-10-09T10:14:52.181Z,100364.41
2022-10-09T10:16:57.870Z,100351.78
2022-10-09T10:19:01.611Z,100353.22
2022-10-09T10:21:10.074Z,100342.31
2022-10-09T10:23:33.504Z,100346.38
2022-10-09T10:25:37.441Z,100338.31
2022-10-09T10:27:44.242Z,100330.03
2022-10-09T10:29:49.195Z,100329.81
2022-10-09T10:31:57.602Z,100338.53
2022-10-09T10:34:04.967Z,100322.16
2022-10-09T10:36:12.324Z,100315.56
2022-10-09T10:38:21.389Z,100324.25
2022-10-09T10:40:29.074Z,100316.72
2022-10-09T10:42:41.643Z,100323.63
2022-10-09T10:44:53.855Z,100318.88
2022-10-09T10:47:05.139Z,100308.69
2022-10-09T10:49:13.068Z,100315.41
2022-10-09T10:51:46.557Z,100307.97
2022-10-09T10:54:03.150Z,100289.94
2022-10-09T10:56:14.008Z,100286.97
2022-10-09T10:58:26.043Z,100269.75
2022-10-09T11:00:34.184Z,100272.84
2022-10-09T11:03:11.457Z,100275.09
2022-10-09T11:05:28.326Z,100254.66
2022-10-09T11:07:41.591Z,100250.88
2022-10-09T11:09:50.987Z,100250.72
2022-10-09T11:12:02.056Z,100247.50
2022-10-09T11:14:20.436Z,100245.56
2022-10-09T11:16:41.813Z,100221.97
2022-10-09T11:19:06.698Z,100231.13
2022-10-09T11:21:24.679Z,100224.91
2022-10-09T11:23:41.257Z,100206.41
2022-10-09T11:25:55.680Z,100220.84
2022-10-09T11:28:04.667Z,100205.97
2022-10-09T11:30:12.940Z,100192.66
2022-10-09T11:32:24.027Z,100183.09
2022-10-09T11:34:33.617Z,100186.78
2022-10-09T11:36:42.261Z,100180.72
2022-10-09T11:38:47.872Z,100186.06
2022-10-09T11:40:52.016Z,100185.38
2022-10-09T11:43:04.069Z,100170.34
2022-10-09T11:45:23.314Z,100178.88
2022-10-09T11:47:36.666Z,100176.50
2022-10-09T11:49:49.230Z,100163.75
2022-10-09T11:52:02.048Z,100173.00
2022-10-09T11:54:06.929Z,100177.75
2022-10-09T11:56:22.166Z,100176.03
2022-10-09T11:58:27.184Z,100165.53
2022-10-09T12:00:33.703Z,100161.31
2022-10-09T12:02:39.998Z,100162.44
2022-10-09T12:04:54.391Z,100154.59
2022-10-09T12:07:01.767Z,100142.38
2022-10-09T12:09:09.661Z,100145.47
2022-10-09T12:11:16.214Z,100149.50
2022-10-09T12:13:45.267Z,100145.81
2022-10-09T12:15:56.770Z,100155.06
2022-10-09T12:18:01.918Z,100142.97
2022-10-09T12:20:09.310Z,100152.06
2022-10-09T12:22:18.396Z,100144.06
2022-10-09T12:24:25.607Z,100131.50
2022-10-09T12:26:30.075Z,100128.81
2022-10-09T12:28:39.500Z,100118.31
2022-10-09T12:30:47.958Z,100123.78
2022-10-09T12:32:56.778Z,100118.47
2022-10-09T12:35:05.832Z,100122.78
2022-10-09T12:37:14.350Z,100123.50
2022-10-09T12:39:22.783Z,100109.09
2022-10-09T12:41:30.368Z,100102.81
2022-10-09T12:43:34.656Z,100093.69
2022-10-09T12:45:45.355Z,100084.59
2022-10-09T12:47:49.522Z,100072.53
2022-10-09T12:49:58.058Z,100077.34
2022-10-09T12:52:03.259Z,100074.97
2022-10-09T12:54:11.083Z,100066.97
2022-10-09T12:56:16.292Z,100048.47
2022-10-09T12:58:22.809Z,100023.81
2022-10-09T13:00:26.561Z,100045.41
2022-10-09T13:02:30.421Z,100031.63
2022-10-09T13:04:35.424Z,100023.34
2022-10-09T13:06:44.335Z,100020.00
2022-10-09T13:08:54.625Z,100019.28
2022-10-09T13:11:10.267Z,100001.66
2022-10-09T13:13:21.031Z,99995.47
2022-10-09T13:15:36.511Z,99994.34
2022-10-09T13:17:43.110Z,99991.22
2022-10-09T13:19:53.568Z,99976.06
2022-10-09T13:22:19.948Z,99965.22
2022-10-09T13:24:25.079Z,99969.00
2022-10-09T13:26:31.374Z,99966.47
2022-10-09T13:28:35.173Z,99949.84
2022-10-09T13:30:38.835Z,99955.91
2022-10-09T13:32:42.734Z,99960.22
2022-10-09T13:34:47.223Z,99949.56
2022-10-09T13:36:51.021Z,99957.56
2022-10-09T13:38:54.627Z,99944.53
2022-10-09T13:41:01.301Z,99934.16
2022-10-09T13:43:06.160Z,99937.13
2022-10-09T13:45:12.127Z,99948.06
2022-10-09T13:47:18.554Z,99935.34
2022-10-09T13:49:24.347Z,99927.63
2022-10-09T13:51:29.415Z,99924.72
2022-10-09T13:53:33.762Z,99922.75
2022-10-09T13:55:37.588Z,99923.34
2022-10-09T13:57:42.613Z,99916.75
2022-10-09T13:59:46.298Z,99911.16
2022-10-09T14:01:50.260Z,99916.94
2022-10-09T14:03:54.040Z,99915.84
2022-10-09T14:06:01.695Z,99919.63
2022-10-09T14:08:05.563Z,99914.59
2022-10-09T14:10:10.215Z,99907.88
2022-10-09T14:12:13.839Z,99909.97
2022-10-09T14:14:19.003Z,99889.22
2022-10-09T14:16:22.920Z,99898.63
2022-10-09T14:18:26.825Z,99899.22
2022-10-09T14:20:30.497Z,99890.53
2022-10-09T14:22:33.968Z,99892.66
2022-10-09T14:24:37.981Z,99894.59
2022-10-09T14:26:41.550Z,99885.63
2022-10-09T14:28:45.343Z,99920.25
2022-10-09T14:30:50.533Z,99898.81
2022-10-09T14:32:55.509Z,99898.81
2022-10-09T14:34:59.048Z,99890.97
2022-10-09T14:37:07.307Z,99879.44
2022-10-09T14:39:17.650Z,99894.75
2022-10-09T14:41:21.392Z,99893.78
2022-10-09T14:43:25.455Z,99890.09
2022-10-09T14:45:29.368Z,99898.81
2022-10-09T14:47:34.458Z,99903.84
2022-10-09T14:49:38.204Z,99898.09
2022-10-09T14:51:42.461Z,99899.34
2022-10-09T14:53:46.596Z,99912.06
2022-10-09T14:55:50.156Z,99919.50
2022-10-09T14:57:53.819Z,99909.28
2022-10-09T14:59:57.640Z,99915.00
2022-10-09T15:02:01.483Z,99921.44
2022-10-09T15:04:07.904Z,99917.50
2022-10-09T15:06:13.345Z,99924.22
2022-10-09T15:08:16.961Z,99910.59
2022-10-09T15:10:20.744Z,99909.31
2022-10-09T15:12:24.877Z,99904.81
2022-10-09T15:14:28.500Z,99904.56
2022-10-09T15:16:32.157Z,99910.41
2022-10-09T15:18:37.039Z,99901.44
2022-10-09T15:20:44.905Z,99903.97
2022-10-09T15:22:48.537Z,99893.44
2022-10-09T15:24:52.139Z,99892.63
2022-10-09T15:26:55.857Z,99906.78
2022-10-09T15:28:59.985Z,99894.97
2022-10-09T15:31:06.469Z,99908.16
2022-10-09T15:33:10.067Z,99904.22
2022-10-09T15:35:13.842Z,99904.78
2022-10-09T15:37:19.059Z,99914.00
2022-10-09T15:39:23.766Z,99920.72
2022-10-09T15:41:29.844Z,99912.28
2022-10-09T15:43:37.523Z,99923.19
2022-10-09T15:45:42.884Z,99901.56
2022-10-09T15:47:53.497Z,99915.59
2022-10-09T15:49:57.187Z,99916.97
2022-10-09T15:52:01.732Z,99916.66
2022-10-09T15:54:07.367Z,99925.53
2022-10-09T15:56:14.037Z,99902.34
2022-10-09T15:58:18.562Z,99924.81
2022-10-09T16:00:22.091Z,99908.41
2022-10-09T16:02:25.669Z,99914.72
2022-10-09T16:04:29.845Z,99909.69
2022-10-09T16:06:33.347Z,99922.34
2022-10-09T16:08:37.538Z,99920.81
2022-10-09T16:10:48.660Z,99909.75
2022-10-09T16:12:52.844Z,99924.38
2022-10-09T16:14:56.742Z,99918.63
2022-10-09T16:17:01.905Z,99929.91
2022-10-09T16:19:05.655Z,99921.34
2022-10-09T16:21:11.537Z,99909.28
2022-10-09T16:23:15.734Z,99910.41
2022-10-09T16:25:19.553Z,99926.72
2022-10-09T16:27:24.573Z,99923.63
2022-10-09T16:29:28.504Z,99933.47
2022-10-09T16:31:35.063Z,99929.09
2022-10-09T16:33:38.606Z,99922.09
2022-10-09T16:35:42.264Z,99924.91
2022-10-09T16:37:46.243Z,99930.22
2022-10-09T16:39:50.637Z,99924.22
2022-10-09T16:41:54.256Z,99925.88
2022-10-09T16:44:00.523Z,99930.38
2022-10-09T16:46:12.292Z,99925.88
2022-10-09T16:48:16.089Z,99926.75
2022-10-09T16:50:20.150Z,99934.75
2022-10-09T16:52:24.187Z,99943.56
2022-10-09T16:54:28.112Z,99946.22
2022-10-09T16:56:34.353Z,99946.22
2022-10-09T16:58:38.108Z,99943.56
2022-10-09T17:00:43.194Z,99937.41
2022-10-09T17:02:46.917Z,99938.38
2022-10-09T17:04:50.894Z,99951.84
2022-10-09T17:06:54.522Z,99960.81
2022-10-09T17:08:59.465Z,99943.13
2022-10-09T17:11:03.606Z,99947.78
2022-10-09T17:13:07.508Z,99953.13
2022-10-09T17:15:12.762Z,99952.41
2022-10-09T17:17:18.431Z,99950.91
2022-10-09T17:19:22.050Z,99957.34
2022-10-09T17:21:29.308Z,99956.63
2022-10-09T17:23:37.602Z,99949.75
2022-10-09T17:25:43.300Z,99955.25
2022-10-09T17:27:47.217Z,99958.19
2022-10-09T17:29:50.894Z,99968.00
2022-10-09T17:31:54.686Z,99961.97
2022-10-09T17:34:02.315Z,99981.44
2022-10-09T17:36:06.663Z,99969.16
2022-10-09T17:38:11.004Z,99978.94
2022-10-09T17:40:14.784Z,99974.72
2022-10-09T17:42:18.380Z,99975.75
2022-10-09T17:44:23.593Z,99982.03
2022-10-09T17:46:29.154Z,99995.50
2022-10-09T17:48:34.217Z,99985.69
2022-10-09T17:50:39.311Z,99987.78
2022-10-09T17:52:42.964Z,100012.75
2022-10-09T17:54:46.728Z,100078.47
2022-10-09T17:56:50.733Z,100093.03
2022-10-09T17:58:56.146Z,100116.41
2022-10-09T18:01:00.373Z,100117.88
2022-10-09T18:03:04.277Z,100129.88
2022-10-09T18:05:09.085Z,100141.72
2022-10-09T18:07:15.299Z,100155.50
2022-10-09T18:09:19.213Z,100158.25
2022-10-09T18:11:25.064Z,100166.13
2022-10-09T18:13:29.124Z,100169.81
2022-10-09T18:15:33.775Z,100182.34
2022-10-09T18:17:38.234Z,100200.88
2022-10-09T18:19:42.161Z,100210.81
2022-10-09T18:21:47.924Z,100228.19
2022-10-09T18:23:52.917Z,100232.56
2022-10-09T18:25:56.857Z,100243.09
2022-10-09T18:28:01.226Z,100268.53
2022-10-09T18:30:05.436Z,100274.13
2022-10-09T18:32:09.939Z,100294.13
2022-10-09T18:34:13.991Z,100296.03
2022-10-09T18:36:20.870Z,100307.06
2022-10-09T18:38:24.968Z,100306.53
2022-10-09T18:40:30.513Z,100317.44
2022-10-09T18:42:34.479Z,100317.50
2022-10-09T18:44:40.519Z,100335.75
2022-10-09T18:46:48.273Z,100331.31
2022-10-09T18:48:53.805Z,100346.28
2022-10-09T18:50:58.328Z,100355.63
2022-10-09T18:53:02.538Z,100365.94
2022-10-09T18:55:09.859Z,100372.63
2022-10-09T18:57:15.400Z,100378.22
2022-10-09T18:59:23.738Z,100385.66
2022-10-09T19:01:27.896Z,100385.84
2022-10-09T19:03:31.704Z,100388.84
2022-10-09T19:05:36.256Z,100385.53
2022-10-09T19:07:41.144Z,100389.06
2022-10-09T19:09:45.322Z,100392.53
2022-10-09T19:11:49.391Z,100396.88
2022-10-09T19:13:55.766Z,100405.56
2022-10-09T19:16:00.321Z,100406.41
2022-10-09T19:18:04.435Z,100408.09
2022-10-09T19:20:09.221Z,100412.56
2022-10-09T19:22:16.396Z,100410.84
2022-10-09T19:24:20.486Z,100426.72
2022-10-09T19:26:25.239Z,100422.31
2022-10-09T19:28:33.113Z,100415.31
2022-10-09T19:30:41.330Z,100414.38
2022-10-09T19:32:46.294Z,100420.50
2022-10-09T19:34:50.594Z,100415.97
2022-10-09T19:36:55.108Z,100424.63
2022-10-09T19:38:59.356Z,100438.63
2022-10-09T19:41:05.933Z,100430.56
2022-10-09T19:43:10.677Z,100436.47
2022-10-09T19:45:14.584Z,100437.22
2022-10-09T19:47:21.886Z,100444.84
2022-10-09T19:49:26.130Z,100449.09
2022-10-09T19:51:30.004Z,100447.91
2022-10-09T19:53:34.073Z,100447.09
2022-10-09T19:55:38.705Z,100446.97
2022-10-09T19:57:42.638Z,100454.91
2022-10-09T19:59:48.351Z,100449.50
2022-10-09T20:01:56.657Z,100453.75
2022-10-09T20:04:04.930Z,100469.53
2022-10-09T20:06:10.239Z,100461.69
2022-10-09T20:08:14.532Z,100460.75
2022-10-09T20:10:18.280Z,100469.75
2022-10-09T20:12:22.038Z,100469.09
2022-10-09T20:14:25.995Z,100470.28
2022-10-09T20:16:32.389Z,100475.78
2022-10-09T20:18:39.685Z,100476.97
2022-10-09T20:20:48.217Z,100488.59
2022-10-09T20:22:52.755Z,100487.94
2022-10-09T20:24:56.749Z,100497.06
2022-10-09T20:27:00.863Z,100498.97
2022-10-09T20:29:06.224Z,100502.66
2022-10-09T20:31:15.364Z,100497.69
2022-10-09T20:33:19.316Z,100504.88
2022-10-09T20:35:22.812Z,100509.53
2022-10-09T20:37:28.287Z,100507.19
2022-10-09T20:39:32.067Z,100511.09
2022-10-09T20:41:36.890Z,100507.81
2022-10-09T20:43:41.584Z,100515.94
2022-10-09T20:45:47.254Z,100516.16
2022-10-09T20:47:50.935Z,100527.69
2022-10-09T20:49:54.581Z,100531.38
2022-10-09T20:51:58.587Z,100531.50
2022-10-09T20:54:04.641Z,100540.38
2022-10-09T20:56:10.718Z,100537.00
2022-10-09T20:58:14.716Z,100545.88
2022-10-09T21:00:18.666Z,100545.97
2022-10-09T21:02:23.391Z,100546.19
2022-10-09T21:04:27.156Z,100541.06
2022-10-09T21:06:31.615Z,100547.22
2022-10-09T21:08:35.465Z,100554.41
2022-10-09T21:10:46.873Z,100555.44
2022-10-09T21:12:50.848Z,100556.41
2022-10-09T21:14:54.999Z,100556.47
2022-10-09T21:16:59.019Z,100558.38
2022-10-09T21:19:05.739Z,100558.59
2022-10-09T21:21:11.589Z,100559.53
2022-10-09T21:23:16.609Z,100569.34
2022-10-09T21:25:20.463Z,100568.63
2022-10-09T21:27:25.658Z,100575.69
2022-10-09T21:29:29.468Z,100581.84
2022-10-09T21:31:33.974Z,100586.34
2022-10-09T21:33:38.181Z,100585.53
2022-10-09T21:35:42.738Z,100593.56
2022-10-09T21:37:46.529Z,100592.06
2022-10-09T21:39:49.964Z,100589.50
2022-10-09T21:41:53.466Z,100594.13
2022-10-09T21:43:58.485Z,100601.31
2022-10-09T21:46:02.184Z,100599.72
2022-10-09T21:48:06.713Z,100599.06
2022-10-09T21:50:11.234Z,100599.97
2022-10-09T21:52:15.120Z,100612.63
2022-10-09T21:54:18.978Z,100612.84
2022-10-09T21:56:23.318Z,100612.94
2022-10-09T21:58:26.995Z,100620.84
2022-10-09T22:00:31.853Z,100626.97
2022-10-09T22:02:35.792Z,100619.25
2022-10-09T22:04:39.493Z,100627.28
2022-10-09T22:06:43.762Z,100634.38
2022-10-09T22:08:48.094Z,100637.94
2022-10-09T22:10:52.193Z,100642.41
2022-10-09T22:12:55.964Z,100632.84
2022-10-09T22:14:59.592Z,100638.25
2022-10-09T22:17:04.728Z,100645.31
2022-10-09T22:19:08.410Z,100643.59
2022-10-09T22:21:15.077Z,100647.22
2022-10-09T22:23:20.388Z,100650.78
2022-10-09T22:25:23.968Z,100645.59
2022-10-09T22:27:28.080Z,100652.66
2022-10-09T22:29:31.748Z,100655.50
2022-10-09T22:31:35.370Z,100654.75
2022-10-09T22:33:40.672Z,100649.63
2022-10-09T22:35:45.930Z,100664.63
2022-10-09T22:37:50.248Z,100665.84
2022-10-09T22:39:53.836Z,100663.31
2022-10-09T22:41:57.456Z,100666.06
2022-10-09T22:44:02.176Z,100667.06
2022-10-09T22:46:10.555Z,100668.84
2022-10-09T22:48:14.090Z,100670.75
2022-10-09T22:50:19.078Z,100669.09
2022-10-09T22:52:22.687Z,100676.19
2022-10-09T22:54:26.301Z,100675.41
2022-10-09T22:56:33.126Z,100687.00
2022-10-09T22:58:36.864Z,100693.31
2022-10-09T23:00:40.809Z,100684.47
2022-10-09T23:02:44.492Z,100684.66
2022-10-09T23:04:47.948Z,100678.59
2022-10-09T23:06:54.096Z,100687.47
2022-10-09T23:08:58.118Z,100687.63
2022-10-09T23:11:01.671Z,100694.81
2022-10-09T23:13:05.399Z,100703.56
2022-10-09T23:15:09.629Z,100715.94
2022-10-09T23:17:13.379Z,100703.66
2022-10-09T23:19:17.952Z,100712.53
2022-10-09T23:21:22.997Z,100710.75
2022-10-09T23:23:29.873Z,100716.03
2022-10-09T23:25:33.453Z,100716.97
2022-10-09T23:27:37.119Z,100724.00
2022-10-09T23:29:40.705Z,100721.47
2022-10-09T23:31:44.275Z,100722.44
2022-10-09T23:33:48.136Z,100731.38
2022-10-09T23:35:51.671Z,100733.22
2022-10-09T23:37:55.350Z,100731.53
2022-10-09T23:40:00.212Z,100738.50
2022-10-09T23:42:03.499Z,100738.50
2022-10-09T23:44:06.768Z,100741.16
2022-10-09T23:46:13.403Z,100747.47
2022-10-09T23:48:16.609Z,100742.25
2022-10-09T23:50:20.128Z,100750.38
2022-10-09T23:52:23.411Z,100750.38
2022-10-09T23:54:26.682Z,100756.56
2022-10-09T23:56:33.053Z,100762.88
2022-10-09T23:58:36.330Z,100759.41
